sensor_id;sensor_type;location;lat;lon;timestamp;temperature;humidity
7248;DHT22;3665;51.034;13.642;2023-09-30T00:00:07;19.40;1.00
7248;DHT22;3665;51.034;13.642;2023-09-30T00:04:54;19.30;1.00
7248;DHT22;3665;51.034;13.642;2023-09-30T00:09:40;19.20;1.00
7248;DHT22;3665;51.034;13.642;2023-09-30T00:14:33;19.10;1.00
7248;DHT22;3665;51.034;13.642;2023-09-30T00:19:37;19.00;1.00
7248;DHT22;3665;51.034;13.642;2023-09-30T00:29:42;18.70;1.00
7248;DHT22;3665;51.034;13.642;2023-09-30T00:34:47;18.50;1.00
7248;DHT22;3665;51.034;13.642;2023-09-30T00:39:40;18.30;1.00
7248;DHT22;3665;51.034;13.642;2023-09-30T00:44:40;18.30;1.00
7248;DHT22;3665;51.034;13.642;2023-09-30T00:49:25;18.20;1.00
7248;DHT22;3665;51.034;13.642;2023-09-30T00:54:12;18.10;1.00
7248;DHT22;3665;51.034;13.642;2023-09-30T00:59:01;18.10;1.00
7248;DHT22;3665;51.034;13.642;2023-09-30T01:03:48;17.90;1.00
7248;DHT22;3665;51.034;13.642;2023-09-30T01:08:39;17.80;1.00
7248;DHT22;3665;51.034;13.642;2023-09-30T01:13:23;17.60;1.00
7248;DHT22;3665;51.034;13.642;2023-09-30T01:18:16;17.50;1.00
7248;DHT22;3665;51.034;13.642;2023-09-30T01:23:03;17.40;1.00
7248;DHT22;3665;51.034;13.642;2023-09-30T01:27:47;17.30;1.00
7248;DHT22;3665;51.034;13.642;2023-09-30T01:32:36;17.10;1.00
7248;DHT22;3665;51.034;13.642;2023-09-30T01:37:26;16.90;1.00
7248;DHT22;3665;51.034;13.642;2023-09-30T01:42:12;16.80;1.00
7248;DHT22;3665;51.034;13.642;2023-09-30T01:47:00;16.50;1.00
7248;DHT22;3665;51.034;13.642;2023-09-30T01:51:45;16.30;1.00
7248;DHT22;3665;51.034;13.642;2023-09-30T01:56:36;16.20;1.00
7248;DHT22;3665;51.034;13.642;2023-09-30T02:01:23;16.10;18.00
7248;DHT22;3665;51.034;13.642;2023-09-30T02:06:14;16.00;1.00
7248;DHT22;3665;51.034;13.642;2023-09-30T02:10:59;15.80;1.00
7248;DHT22;3665;51.034;13.642;2023-09-30T02:15:45;15.60;1.00
7248;DHT22;3665;51.034;13.642;2023-09-30T02:25:59;15.40;1.00
7248;DHT22;3665;51.034;13.642;2023-09-30T02:30:43;15.30;1.00
7248;DHT22;3665;51.034;13.642;2023-09-30T02:35:33;15.30;1.00
7248;DHT22;3665;51.034;13.642;2023-09-30T02:40:23;15.20;1.00
7248;DHT22;3665;51.034;13.642;2023-09-30T02:45:10;15.30;1.00
7248;DHT22;3665;51.034;13.642;2023-09-30T02:49:57;15.20;1.00
7248;DHT22;3665;51.034;13.642;2023-09-30T02:54:44;15.10;1.00
7248;DHT22;3665;51.034;13.642;2023-09-30T02:59:31;15.10;1.00
7248;DHT22;3665;51.034;13.642;2023-09-30T03:04:20;15.00;1.00
7248;DHT22;3665;51.034;13.642;2023-09-30T03:09:09;14.90;1.00
7248;DHT22;3665;51.034;13.642;2023-09-30T03:13:56;14.80;1.00
7248;DHT22;3665;51.034;13.642;2023-09-30T03:18:44;14.80;1.00
7248;DHT22;3665;51.034;13.642;2023-09-30T03:23:32;14.60;1.00
7248;DHT22;3665;51.034;13.642;2023-09-30T03:28:22;14.50;1.00
7248;DHT22;3665;51.034;13.642;2023-09-30T03:33:07;14.40;1.00
7248;DHT22;3665;51.034;13.642;2023-09-30T03:37:57;14.30;1.00
7248;DHT22;3665;51.034;13.642;2023-09-30T03:42:46;14.20;1.00
7248;DHT22;3665;51.034;13.642;2023-09-30T03:47:32;14.10;1.00
7248;DHT22;3665;51.034;13.642;2023-09-30T03:52:20;14.00;1.00
7248;DHT22;3665;51.034;13.642;2023-09-30T03:57:08;13.90;1.00
7248;DHT22;3665;51.034;13.642;2023-09-30T04:01:56;13.90;1.00
7248;DHT22;3665;51.034;13.642;2023-09-30T04:06:46;13.80;1.00
7248;DHT22;3665;51.034;13.642;2023-09-30T04:11:32;13.90;1.00
7248;DHT22;3665;51.034;13.642;2023-09-30T04:16:22;13.70;1.00
7248;DHT22;3665;51.034;13.642;2023-09-30T04:21:26;13.60;1.00
7248;DHT22;3665;51.034;13.642;2023-09-30T04:26:13;13.50;1.00
7248;DHT22;3665;51.034;13.642;2023-09-30T04:30:57;13.40;1.00
7248;DHT22;3665;51.034;13.642;2023-09-30T04:35:41;13.20;1.00
7248;DHT22;3665;51.034;13.642;2023-09-30T04:40:37;13.20;1.00
7248;DHT22;3665;51.034;13.642;2023-09-30T04:45:27;13.10;1.00
7248;DHT22;3665;51.034;13.642;2023-09-30T04:50:14;13.00;1.00
7248;DHT22;3665;51.034;13.642;2023-09-30T04:55:00;12.90;1.00
7248;DHT22;3665;51.034;13.642;2023-09-30T04:59:48;12.90;1.00
7248;DHT22;3665;51.034;13.642;2023-09-30T05:04:35;12.80;1.00
7248;DHT22;3665;51.034;13.642;2023-09-30T05:09:25;12.70;1.00
7248;DHT22;3665;51.034;13.642;2023-09-30T05:14:13;12.90;1.00
7248;DHT22;3665;51.034;13.642;2023-09-30T05:19:16;12.90;1.00
7248;DHT22;3665;51.034;13.642;2023-09-30T05:24:06;12.90;1.00
7248;DHT22;3665;51.034;13.642;2023-09-30T05:28:52;12.90;1.00
7248;DHT22;3665;51.034;13.642;2023-09-30T05:33:42;12.90;1.00
7248;DHT22;3665;51.034;13.642;2023-09-30T05:38:31;13.10;1.00
7248;DHT22;3665;51.034;13.642;2023-09-30T05:43:16;13.20;1.00
7248;DHT22;3665;51.034;13.642;2023-09-30T05:48:05;13.40;1.00
7248;DHT22;3665;51.034;13.642;2023-09-30T05:52:55;13.40;1.00
7248;DHT22;3665;51.034;13.642;2023-09-30T05:58:14;13.50;1.00
7248;DHT22;3665;51.034;13.642;2023-09-30T06:03:03;13.50;1.00
7248;DHT22;3665;51.034;13.642;2023-09-30T06:07:49;13.60;1.00
7248;DHT22;3665;51.034;13.642;2023-09-30T06:12:38;13.60;1.00
7248;DHT22;3665;51.034;13.642;2023-09-30T06:17:25;13.60;1.00
7248;DHT22;3665;51.034;13.642;2023-09-30T06:22:12;13.60;1.00
7248;DHT22;3665;51.034;13.642;2023-09-30T06:26:59;13.70;1.00
7248;DHT22;3665;51.034;13.642;2023-09-30T06:31:52;13.80;1.00
7248;DHT22;3665;51.034;13.642;2023-09-30T06:36:39;13.90;1.00
7248;DHT22;3665;51.034;13.642;2023-09-30T06:41:24;14.20;1.00
7248;DHT22;3665;51.034;13.642;2023-09-30T06:46:12;14.60;1.00
7248;DHT22;3665;51.034;13.642;2023-09-30T06:51:02;14.60;1.00
7248;DHT22;3665;51.034;13.642;2023-09-30T06:55:47;14.80;1.00
7248;DHT22;3665;51.034;13.642;2023-09-30T07:00:36;14.80;1.00
7248;DHT22;3665;51.034;13.642;2023-09-30T07:05:25;14.60;1.00
7248;DHT22;3665;51.034;13.642;2023-09-30T07:10:14;14.40;1.00
7248;DHT22;3665;51.034;13.642;2023-09-30T07:15:16;14.50;1.00
7248;DHT22;3665;51.034;13.642;2023-09-30T07:20:06;14.90;1.00
7248;DHT22;3665;51.034;13.642;2023-09-30T07:24:52;15.30;1.00
7248;DHT22;3665;51.034;13.642;2023-09-30T07:29:43;15.70;1.00
7248;DHT22;3665;51.034;13.642;2023-09-30T07:34:32;15.90;1.00
7248;DHT22;3665;51.034;13.642;2023-09-30T07:39:17;16.00;1.00
7248;DHT22;3665;51.034;13.642;2023-09-30T07:44:03;16.40;1.00
7248;DHT22;3665;51.034;13.642;2023-09-30T07:49:00;17.00;1.00
7248;DHT22;3665;51.034;13.642;2023-09-30T07:54:13;17.30;1.00
7248;DHT22;3665;51.034;13.642;2023-09-30T07:59:50;17.90;1.00
7248;DHT22;3665;51.034;13.642;2023-09-30T08:04:35;17.80;1.00
7248;DHT22;3665;51.034;13.642;2023-09-30T08:20:46;17.60;1.00
7248;DHT22;3665;51.034;13.642;2023-09-30T08:25:41;17.50;1.00
7248;DHT22;3665;51.034;13.642;2023-09-30T08:30:28;17.60;1.00
7248;DHT22;3665;51.034;13.642;2023-09-30T08:35:22;17.60;1.00
7248;DHT22;3665;51.034;13.642;2023-09-30T08:40:11;17.50;1.00
7248;DHT22;3665;51.034;13.642;2023-09-30T08:45:57;17.60;1.00
7248;DHT22;3665;51.034;13.642;2023-09-30T08:56:41;18.30;1.00
7248;DHT22;3665;51.034;13.642;2023-09-30T09:01:42;18.50;1.00
7248;DHT22;3665;51.034;13.642;2023-09-30T09:11:48;18.70;1.00
7248;DHT22;3665;51.034;13.642;2023-09-30T09:16:54;18.50;1.00
7248;DHT22;3665;51.034;13.642;2023-09-30T09:21:55;18.30;1.00
7248;DHT22;3665;51.034;13.642;2023-09-30T09:26:41;18.50;1.00
7248;DHT22;3665;51.034;13.642;2023-09-30T09:31:41;18.80;1.00
7248;DHT22;3665;51.034;13.642;2023-09-30T09:36:43;19.10;1.00
7248;DHT22;3665;51.034;13.642;2023-09-30T09:41:49;19.50;1.00
7248;DHT22;3665;51.034;13.642;2023-09-30T09:46:50;18.90;1.00
7248;DHT22;3665;51.034;13.642;2023-09-30T09:52:22;18.60;1.00
7248;DHT22;3665;51.034;13.642;2023-09-30T09:57:10;19.20;1.00
7248;DHT22;3665;51.034;13.642;2023-09-30T10:01:59;18.40;1.00
7248;DHT22;3665;51.034;13.642;2023-09-30T10:06:46;18.30;1.00
7248;DHT22;3665;51.034;13.642;2023-09-30T10:11:36;18.50;1.00
7248;DHT22;3665;51.034;13.642;2023-09-30T10:16:54;18.50;1.00
7248;DHT22;3665;51.034;13.642;2023-09-30T10:33:11;18.80;1.00
7248;DHT22;3665;51.034;13.642;2023-09-30T10:43:36;20.30;1.00
7248;DHT22;3665;51.034;13.642;2023-09-30T10:48:52;20.30;1.00
7248;DHT22;3665;51.034;13.642;2023-09-30T10:54:14;20.60;1.00
7248;DHT22;3665;51.034;13.642;2023-09-30T10:59:00;20.30;1.00
7248;DHT22;3665;51.034;13.642;2023-09-30T11:04:07;20.20;1.00
7248;DHT22;3665;51.034;13.642;2023-09-30T11:08:54;19.80;1.00
7248;DHT22;3665;51.034;13.642;2023-09-30T11:13:41;19.20;1.00
7248;DHT22;3665;51.034;13.642;2023-09-30T11:18:35;19.30;1.00
7248;DHT22;3665;51.034;13.642;2023-09-30T11:40:21;20.50;1.00
7248;DHT22;3665;51.034;13.642;2023-09-30T11:45:26;20.80;1.00
7248;DHT22;3665;51.034;13.642;2023-09-30T11:50:13;21.30;1.00
7248;DHT22;3665;51.034;13.642;2023-09-30T11:54:59;21.40;1.00
7248;DHT22;3665;51.034;13.642;2023-09-30T11:59:49;21.10;1.00
7248;DHT22;3665;51.034;13.642;2023-09-30T12:04:37;20.70;1.00
7248;DHT22;3665;51.034;13.642;2023-09-30T12:10:05;20.60;1.00
7248;DHT22;3665;51.034;13.642;2023-09-30T12:15:01;20.60;1.00
7248;DHT22;3665;51.034;13.642;2023-09-30T12:20:19;20.40;1.00
7248;DHT22;3665;51.034;13.642;2023-09-30T12:25:08;20.10;1.00
7248;DHT22;3665;51.034;13.642;2023-09-30T12:29:56;20.40;1.00
7248;DHT22;3665;51.034;13.642;2023-09-30T12:35:02;19.80;1.00
7248;DHT22;3665;51.034;13.642;2023-09-30T12:39:50;19.50;1.00
7248;DHT22;3665;51.034;13.642;2023-09-30T12:44:53;19.20;1.00
7248;DHT22;3665;51.034;13.642;2023-09-30T12:50:28;19.70;1.00
7248;DHT22;3665;51.034;13.642;2023-09-30T12:55:40;20.10;1.00
7248;DHT22;3665;51.034;13.642;2023-09-30T13:00:26;19.70;1.00
7248;DHT22;3665;51.034;13.642;2023-09-30T13:05:28;20.10;1.00
7248;DHT22;3665;51.034;13.642;2023-09-30T13:10:15;20.00;1.00
7248;DHT22;3665;51.034;13.642;2023-09-30T13:15:16;19.90;1.00
7248;DHT22;3665;51.034;13.642;2023-09-30T13:20:06;19.90;1.00
7248;DHT22;3665;51.034;13.642;2023-09-30T13:24:53;19.90;1.00
7248;DHT22;3665;51.034;13.642;2023-09-30T13:29:40;20.20;1.00
7248;DHT22;3665;51.034;13.642;2023-09-30T13:34:27;20.50;1.00
7248;DHT22;3665;51.034;13.642;2023-09-30T13:39:18;20.70;1.00
7248;DHT22;3665;51.034;13.642;2023-09-30T13:44:21;20.70;1.00
7248;DHT22;3665;51.034;13.642;2023-09-30T13:49:10;20.50;1.00
7248;DHT22;3665;51.034;13.642;2023-09-30T13:53:56;20.30;1.00
7248;DHT22;3665;51.034;13.642;2023-09-30T13:58:45;20.20;1.00
7248;DHT22;3665;51.034;13.642;2023-09-30T14:03:33;20.10;1.00
7248;DHT22;3665;51.034;13.642;2023-09-30T14:08:21;20.10;1.00
7248;DHT22;3665;51.034;13.642;2023-09-30T14:13:10;19.90;1.00
7248;DHT22;3665;51.034;13.642;2023-09-30T14:17:57;19.60;1.00
7248;DHT22;3665;51.034;13.642;2023-09-30T14:22:48;19.40;1.00
7248;DHT22;3665;51.034;13.642;2023-09-30T14:27:33;19.50;1.00
7248;DHT22;3665;51.034;13.642;2023-09-30T14:32:22;19.20;1.00
7248;DHT22;3665;51.034;13.642;2023-09-30T14:37:24;19.20;1.00
7248;DHT22;3665;51.034;13.642;2023-09-30T14:42:13;19.00;1.00
7248;DHT22;3665;51.034;13.642;2023-09-30T14:47:23;19.00;1.00
7248;DHT22;3665;51.034;13.642;2023-09-30T14:52:21;19.00;1.00
7248;DHT22;3665;51.034;13.642;2023-09-30T14:57:08;18.90;1.00
7248;DHT22;3665;51.034;13.642;2023-09-30T15:01:56;18.90;1.00
7248;DHT22;3665;51.034;13.642;2023-09-30T15:06:46;18.80;1.00
7248;DHT22;3665;51.034;13.642;2023-09-30T15:11:48;18.70;1.00
7248;DHT22;3665;51.034;13.642;2023-09-30T15:17:10;18.30;1.00
7248;DHT22;3665;51.034;13.642;2023-09-30T15:22:12;18.00;1.00
7248;DHT22;3665;51.034;13.642;2023-09-30T15:26:59;18.00;1.00
7248;DHT22;3665;51.034;13.642;2023-09-30T15:31:53;17.80;1.00
7248;DHT22;3665;51.034;13.642;2023-09-30T15:36:42;17.60;1.00
7248;DHT22;3665;51.034;13.642;2023-09-30T15:52:24;16.80;1.00
7248;DHT22;3665;51.034;13.642;2023-09-30T16:18:52;15.60;1.00
7248;DHT22;3665;51.034;13.642;2023-09-30T16:30:43;14.80;1.00
7248;DHT22;3665;51.034;13.642;2023-09-30T16:35:39;14.60;1.00
7248;DHT22;3665;51.034;13.642;2023-09-30T16:40:36;14.40;1.00
7248;DHT22;3665;51.034;13.642;2023-09-30T16:45:28;14.10;1.00
7248;DHT22;3665;51.034;13.642;2023-09-30T17:17:48;12.40;1.00
7248;DHT22;3665;51.034;13.642;2023-09-30T17:22:50;12.10;1.00
7248;DHT22;3665;51.034;13.642;2023-09-30T17:27:49;12.00;1.00
7248;DHT22;3665;51.034;13.642;2023-09-30T17:33:10;11.80;1.00
7248;DHT22;3665;51.034;13.642;2023-09-30T17:37:58;11.70;1.00
7248;DHT22;3665;51.034;13.642;2023-09-30T17:42:47;11.60;1.00
7248;DHT22;3665;51.034;13.642;2023-09-30T17:47:33;11.50;1.00
7248;DHT22;3665;51.034;13.642;2023-09-30T17:52:26;11.50;1.00
7248;DHT22;3665;51.034;13.642;2023-09-30T17:57:28;11.40;1.00
7248;DHT22;3665;51.034;13.642;2023-09-30T18:02:29;11.30;1.00
7248;DHT22;3665;51.034;13.642;2023-09-30T18:07:16;11.20;1.00
7248;DHT22;3665;51.034;13.642;2023-09-30T18:12:27;11.20;1.00
7248;DHT22;3665;51.034;13.642;2023-09-30T18:17:33;11.00;1.00
7248;DHT22;3665;51.034;13.642;2023-09-30T18:23:00;11.00;1.00
7248;DHT22;3665;51.034;13.642;2023-09-30T18:28:08;10.90;1.00
7248;DHT22;3665;51.034;13.642;2023-09-30T18:33:25;10.90;1.00
7248;DHT22;3665;51.034;13.642;2023-09-30T18:38:12;10.90;1.00
7248;DHT22;3665;51.034;13.642;2023-09-30T18:43:00;10.80;1.00
7248;DHT22;3665;51.034;13.642;2023-09-30T18:47:53;10.90;1.00
7248;DHT22;3665;51.034;13.642;2023-09-30T18:52:41;10.90;1.00
7248;DHT22;3665;51.034;13.642;2023-09-30T18:58:14;10.90;1.00
7248;DHT22;3665;51.034;13.642;2023-09-30T19:03:15;10.90;1.00
7248;DHT22;3665;51.034;13.642;2023-09-30T19:08:03;10.90;1.00
7248;DHT22;3665;51.034;13.642;2023-09-30T19:12:54;10.90;1.00
7248;DHT22;3665;51.034;13.642;2023-09-30T19:17:39;11.10;1.00
7248;DHT22;3665;51.034;13.642;2023-09-30T19:22:34;11.20;1.00
7248;DHT22;3665;51.034;13.642;2023-09-30T19:27:18;11.20;1.00
7248;DHT22;3665;51.034;13.642;2023-09-30T19:32:03;11.30;1.00
7248;DHT22;3665;51.034;13.642;2023-09-30T19:36:53;11.40;1.00
7248;DHT22;3665;51.034;13.642;2023-09-30T19:41:40;11.40;1.00
7248;DHT22;3665;51.034;13.642;2023-09-30T19:46:30;11.40;1.00
7248;DHT22;3665;51.034;13.642;2023-09-30T19:51:22;11.40;1.00
7248;DHT22;3665;51.034;13.642;2023-09-30T19:56:06;11.50;1.00
7248;DHT22;3665;51.034;13.642;2023-09-30T20:00:52;11.50;1.00
7248;DHT22;3665;51.034;13.642;2023-09-30T20:05:36;11.30;1.00
7248;DHT22;3665;51.034;13.642;2023-09-30T20:10:27;11.20;1.00
7248;DHT22;3665;51.034;13.642;2023-09-30T20:15:16;11.10;1.00
7248;DHT22;3665;51.034;13.642;2023-09-30T20:20:19;11.00;1.00
7248;DHT22;3665;51.034;13.642;2023-09-30T20:25:07;11.00;1.00
7248;DHT22;3665;51.034;13.642;2023-09-30T20:29:56;11.00;1.00
7248;DHT22;3665;51.034;13.642;2023-09-30T20:34:42;11.00;1.00
7248;DHT22;3665;51.034;13.642;2023-09-30T20:39:27;11.00;1.00
7248;DHT22;3665;51.034;13.642;2023-09-30T20:44:20;11.00;1.00
7248;DHT22;3665;51.034;13.642;2023-09-30T20:49:07;10.90;1.00
7248;DHT22;3665;51.034;13.642;2023-09-30T20:53:52;10.90;1.00
7248;DHT22;3665;51.034;13.642;2023-09-30T20:58:44;10.80;1.00
7248;DHT22;3665;51.034;13.642;2023-09-30T21:03:32;10.70;1.00
7248;DHT22;3665;51.034;13.642;2023-09-30T21:08:22;10.60;1.00
7248;DHT22;3665;51.034;13.642;2023-09-30T21:13:08;10.60;1.00
7248;DHT22;3665;51.034;13.642;2023-09-30T21:17:57;10.60;1.00
7248;DHT22;3665;51.034;13.642;2023-09-30T21:22:45;10.70;1.00
7248;DHT22;3665;51.034;13.642;2023-09-30T21:27:35;10.60;1.00
7248;DHT22;3665;51.034;13.642;2023-09-30T21:32:22;10.40;1.00
7248;DHT22;3665;51.034;13.642;2023-09-30T21:37:10;10.30;1.00
7248;DHT22;3665;51.034;13.642;2023-09-30T21:41:58;10.20;1.00
7248;DHT22;3665;51.034;13.642;2023-09-30T21:46:45;10.10;1.00
7248;DHT22;3665;51.034;13.642;2023-09-30T21:51:32;10.10;1.00
7248;DHT22;3665;51.034;13.642;2023-09-30T21:56:21;10.10;1.00
7248;DHT22;3665;51.034;13.642;2023-09-30T22:01:06;10.10;1.00
7248;DHT22;3665;51.034;13.642;2023-09-30T22:06:00;10.10;1.00
7248;DHT22;3665;51.034;13.642;2023-09-30T22:10:50;10.10;1.00
7248;DHT22;3665;51.034;13.642;2023-09-30T22:15:37;10.10;1.00
7248;DHT22;3665;51.034;13.642;2023-09-30T22:20:30;10.10;1.00
7248;DHT22;3665;51.034;13.642;2023-09-30T22:25:15;10.20;1.00
7248;DHT22;3665;51.034;13.642;2023-09-30T22:30:00;10.10;1.00
7248;DHT22;3665;51.034;13.642;2023-09-30T22:34:50;10.20;1.00
7248;DHT22;3665;51.034;13.642;2023-09-30T22:39:40;10.20;1.00
7248;DHT22;3665;51.034;13.642;2023-09-30T22:44:25;10.30;1.00
7248;DHT22;3665;51.034;13.642;2023-09-30T22:49:13;10.40;1.00
7248;DHT22;3665;51.034;13.642;2023-09-30T22:59:40;10.50;1.00
7248;DHT22;3665;51.034;13.642;2023-09-30T23:04:24;10.60;1.00
7248;DHT22;3665;51.034;13.642;2023-09-30T23:09:11;10.60;1.00
7248;DHT22;3665;51.034;13.642;2023-09-30T23:14:05;10.60;1.00
7248;DHT22;3665;51.034;13.642;2023-09-30T23:18:53;10.60;1.00
7248;DHT22;3665;51.034;13.642;2023-09-30T23:23:39;10.70;1.00
7248;DHT22;3665;51.034;13.642;2023-09-30T23:38:39;10.30;1.00
7248;DHT22;3665;51.034;13.642;2023-09-30T23:43:25;10.20;1.00
7248;DHT22;3665;51.034;13.642;2023-09-30T23:48:11;10.30;1.00
7248;DHT22;3665;51.034;13.642;2023-09-30T23:52:58;10.30;1.00
7248;DHT22;3665;51.034;13.642;2023-09-30T23:57:48;10.30;1.00
